Time,TemperatureF,DewpointF,PressureIn,WindDirection,WindDirectionDegrees,WindSpeedMPH,WindSpeedGustMPH,Humidity,HourlyPrecipIn,Conditions,Clouds,dailyrainin,SolarRadiationWatts/m^2,SoftwareType,DateUTC
2013-04-23 00:01:00,30.6,28.8,30.22,NW,304,2.0,4.0,93,0.00,-SN,-SN,0.00,0.0,WeatherDisplay:10.37,2013-04-23 05:01:00,
2013-04-23 00:06:00,30.5,28.7,30.22,NW,310,2.0,4.0,93,0.00,OVC,OVC,0.00,0.0,WeatherDisplay:10.37,2013-04-23 05:06:00,
2013-04-23 00:11:00,30.4,28.6,30.23,NW,311,2.0,4.0,93,0.00,OVC,OVC,0.00,0.0,WeatherDisplay:10.37,2013-04-23 05:11:00,
2013-04-23 00:16:00,30.5,28.7,30.23,NW,308,2.0,5.0,93,0.00,OVC,OVC,0.00,0.0,WeatherDisplay:10.37,2013-04-23 05:16:00,
2013-04-23 00:21:00,30.4,28.6,30.23,WNW,302,0.0,4.0,93,0.00,OVC,OVC,0.00,0.0,WeatherDisplay:10.37,2013-04-23 05:21:00,
2013-04-23 00:26:00,30.4,28.6,30.23,WNW,303,1.0,6.0,93,0.00,OVC,OVC,0.00,0.0,WeatherDisplay:10.37,2013-04-23 05:26:00,
2013-04-23 00:31:00,30.5,28.7,30.22,NW,304,1.0,5.0,93,0.00,OVC,OVC,0.00,0.0,WeatherDisplay:10.37,2013-04-23 05:31:00,
2013-04-23 00:36:00,30.5,28.5,30.22,WNW,291,3.3,4.6,92,0.00,OVC,,0.00,0.0,WeatherDisplay:10.37,2013-04-23 05:36:00,
2013-04-23 00:41:00,30.6,28.6,30.22,NW,305,4.1,6.0,92,0.00,OVC,,0.00,0.0,WeatherDisplay:10.37,2013-04-23 05:41:00,
2013-04-23 00:46:00,30.7,28.4,30.22,NW,308,4.0,6.0,91,0.00,OVC,,0.00,0.0,WeatherDisplay:10.37,2013-04-23 05:46:00,
2013-04-23 00:51:00,30.7,28.1,30.22,NW,321,3.1,5.0,90,0.00,OVC,,0.00,0.0,WeatherDisplay:10.37,2013-04-23 05:51:00,
2013-04-23 00:56:00,30.7,28.1,30.22,NW,315,2.6,4.0,90,0.00,OVC,,0.00,0.0,WeatherDisplay:10.37,2013-04-23 05:56:00,
2013-04-23 01:01:00,30.7,27.8,30.22,NW,309,4.8,10.0,89,0.00,OVC,,0.00,0.0,WeatherDisplay:10.37,2013-04-23 06:01:00,
2013-04-23 01:06:00,30.7,27.6,30.22,NW,319,3.5,8.0,88,0.00,OVC,,0.00,0.0,WeatherDisplay:10.37,2013-04-23 06:06:00,
2013-04-23 01:11:00,30.6,27.5,30.22,NNW,327,2.7,5.0,88,0.00,OVC,,0.00,0.0,WeatherDisplay:10.37,2013-04-23 06:11:00,
2013-04-23 01:16:00,30.6,27.2,30.21,NW,317,1.0,1.2,87,0.00,OVC,,0.00,0.0,WeatherDisplay:10.37,2013-04-23 06:16:00,
2013-04-23 01:21:00,30.5,26.8,30.22,NW,324,4.7,7.0,86,0.00,OVC,,0.00,0.0,WeatherDisplay:10.37,2013-04-23 06:21:00,
2013-04-23 01:26:00,30.5,26.8,30.22,NW,317,6.8,10.4,86,0.00,OVC,,0.00,0.0,WeatherDisplay:10.37,2013-04-23 06:26:00,
2013-04-23 01:31:00,30.5,26.8,30.22,NW,313,4.8,10.4,86,0.00,OVC,,0.00,0.0,WeatherDisplay:10.37,2013-04-23 06:31:00,
2013-04-23 01:36:00,30.6,26.6,30.22,NW,306,5.5,9.2,85,0.00,OVC,,0.00,0.0,WeatherDisplay:10.37,2013-04-23 06:36:00,
2013-04-23 01:41:00,30.6,26.6,30.22,NW,319,3.8,7.0,85,0.00,OVC,,0.00,0.0,WeatherDisplay:10.37,2013-04-23 06:41:00,
2013-04-23 01:46:00,30.7,26.7,30.22,NW,325,5.7,7.0,85,0.00,OVC,,0.00,0.0,WeatherDisplay:10.37,2013-04-23 06:46:00,
2013-04-23 01:51:00,30.7,26.7,30.22,WNW,298,3.7,8.1,85,0.00,OVC,,0.00,0.0,WeatherDisplay:10.37,2013-04-23 06:51:00,
2013-04-23 01:56:00,30.6,26.3,30.22,NW,315,4.4,8.1,84,0.00,OVC,,0.00,0.0,WeatherDisplay:10.37,2013-04-23 06:56:00,
2013-04-23 02:01:00,30.5,26.2,30.22,NW,321,4.9,10.4,84,0.00,OVC,,0.00,0.0,WeatherDisplay:10.37,2013-04-23 07:01:00,
2013-04-23 02:06:00,30.5,26.2,30.22,NW,313,3.9,8.1,84,0.00,OVC,,0.00,0.0,WeatherDisplay:10.37,2013-04-23 07:06:00,
2013-04-23 02:11:00,30.4,26.1,30.22,NNW,330,6.7,11.5,84,0.00,OVC,,0.00,0.0,WeatherDisplay:10.37,2013-04-23 07:11:00,
2013-04-23 02:16:00,30.3,26.0,30.22,NW,308,4.7,11.0,84,0.00,OVC,,0.00,0.0,WeatherDisplay:10.37,2013-04-23 07:16:00,
2013-04-23 02:21:00,30.3,26.0,30.22,NW,325,5.8,9.2,84,0.00,OVC,,0.00,0.0,WeatherDisplay:10.37,2013-04-23 07:21:00,
2013-04-23 02:26:00,30.3,26.0,30.22,NNW,336,4.1,7.0,84,0.00,OVC,,0.00,0.0,WeatherDisplay:10.37,2013-04-23 07:26:00,
2013-04-23 02:31:00,30.1,25.8,30.22,NW,312,5.0,7.0,84,0.00,OVC,,0.00,0.0,WeatherDisplay:10.37,2013-04-23 07:31:00,
2013-04-23 02:36:00,30.0,25.8,30.22,NW,307,3.6,6.0,84,0.00,OVC,,0.00,0.0,WeatherDisplay:10.37,2013-04-23 07:36:00,
2013-04-23 02:41:00,29.9,25.7,30.21,NW,316,5.0,11.0,84,0.00,OVC,,0.00,0.0,WeatherDisplay:10.37,2013-04-23 07:41:00,
2013-04-23 02:46:00,29.7,25.5,30.21,NW,317,4.4,11.0,84,0.00,OVC,,0.00,0.0,WeatherDisplay:10.37,2013-04-23 07:46:00,
2013-04-23 02:51:00,29.6,25.4,30.21,NNW,348,6.3,11.0,84,0.00,OVC,,0.00,0.0,WeatherDisplay:10.37,2013-04-23 07:51:00,
2013-04-23 02:56:00,29.6,25.4,30.21,NNW,347,4.3,11.0,84,0.00,OVC,,0.00,0.0,WeatherDisplay:10.37,2013-04-23 07:56:00,
2013-04-23 03:01:00,29.4,25.2,30.21,North,5,2.6,7.0,84,0.00,OVC,,0.00,0.0,WeatherDisplay:10.37,2013-04-23 08:01:00,
2013-04-23 03:06:00,29.4,25.2,30.21,NW,326,3.9,11.0,84,0.00,OVC,,0.00,0.0,WeatherDisplay:10.37,2013-04-23 08:06:00,
2013-04-23 03:11:00,29.2,25.0,30.21,NW,313,3.3,6.0,84,0.00,OVC,,0.00,0.0,WeatherDisplay:10.37,2013-04-23 08:11:00,
2013-04-23 03:16:00,29.1,24.9,30.20,NW,305,3.8,11.0,84,0.00,OVC,,0.00,0.0,WeatherDisplay:10.37,2013-04-23 08:16:00,
2013-04-23 03:21:00,28.9,24.7,30.20,NW,307,2.8,11.0,84,0.00,OVC,,0.00,0.0,WeatherDisplay:10.37,2013-04-23 08:21:00,
2013-04-23 03:26:00,28.7,24.5,30.20,North,360,4.1,11.0,84,0.00,OVC,,0.00,0.0,WeatherDisplay:10.37,2013-04-23 08:26:00,
2013-04-23 03:31:00,28.5,24.3,30.20,NW,316,3.3,11.0,84,0.00,OVC,,0.00,0.0,WeatherDisplay:10.37,2013-04-23 08:31:00,
2013-04-23 03:36:00,28.3,24.1,30.19,NW,324,3.2,11.0,84,0.00,OVC,,0.00,0.0,WeatherDisplay:10.37,2013-04-23 08:36:00,
2013-04-23 03:41:00,28.1,23.9,30.19,NW,309,5.3,11.0,84,0.00,OVC,,0.00,0.0,WeatherDisplay:10.37,2013-04-23 08:41:00,
2013-04-23 03:46:00,27.9,23.7,30.19,NW,315,3.4,11.0,84,0.00,OVC,,0.00,0.0,WeatherDisplay:10.37,2013-04-23 08:46:00,
2013-04-23 03:51:00,27.7,23.5,30.19,North,360,4.1,11.0,84,0.00,OVC,,0.00,0.0,WeatherDisplay:10.37,2013-04-23 08:51:00,
2013-04-23 03:56:00,27.5,23.3,30.19,North,355,5.3,11.0,84,0.00,OVC,,0.00,0.0,WeatherDisplay:10.37,2013-04-23 08:56:00,
2013-04-23 04:01:00,27.3,23.1,30.19,NNW,327,4.8,8.0,84,0.00,OVC,,0.00,0.0,WeatherDisplay:10.37,2013-04-23 09:01:00,
2013-04-23 04:06:00,27.2,23.0,30.19,NW,311,5.6,11.0,84,0.00,BKN,,0.00,0.0,WeatherDisplay:10.37,2013-04-23 09:06:00,
2013-04-23 04:11:00,27.1,22.9,30.19,NNW,328,4.5,7.0,84,0.00,BKN,,0.00,0.0,WeatherDisplay:10.37,2013-04-23 09:11:00,
2013-04-23 04:16:00,26.9,22.7,30.19,NW,304,2.3,11.0,84,0.00,BKN,,0.00,0.0,WeatherDisplay:10.37,2013-04-23 09:16:00,
2013-04-23 04:21:00,26.9,22.7,30.19,North,5,4.3,11.5,84,0.00,BKN,,0.00,0.0,WeatherDisplay:10.37,2013-04-23 09:21:00,
2013-04-23 04:26:00,26.8,22.6,30.19,NNW,335,3.8,7.0,84,0.00,BKN,,0.00,0.0,WeatherDisplay:10.37,2013-04-23 09:26:00,
2013-04-23 04:31:00,26.7,22.5,30.19,NW,325,2.7,8.1,84,0.00,BKN,,0.00,0.0,WeatherDisplay:10.37,2013-04-23 09:31:00,
2013-04-23 04:36:00,26.7,22.5,30.19,NW,325,2.8,7.0,84,0.00,BKN,,0.00,0.0,WeatherDisplay:10.37,2013-04-23 09:36:00,
2013-04-23 04:41:00,26.5,22.3,30.19,NW,322,4.9,11.0,84,0.00,BKN,,0.00,0.0,WeatherDisplay:10.37,2013-04-23 09:41:00,
2013-04-23 04:46:00,26.4,22.2,30.19,NNW,346,5.6,10.4,84,0.00,BKN,,0.00,0.0,WeatherDisplay:10.37,2013-04-23 09:46:00,
2013-04-23 04:51:00,26.3,22.1,30.19,NNW,346,4.5,11.0,84,0.00,BKN,,0.00,0.0,WeatherDisplay:10.37,2013-04-23 09:51:00,
2013-04-23 04:56:00,26.2,22.0,30.19,NW,312,4.6,11.0,84,0.00,BKN,,0.00,0.0,WeatherDisplay:10.37,2013-04-23 09:56:00,
2013-04-23 05:01:00,26.1,21.9,30.20,NW,313,3.9,6.9,84,0.00,CLR,,0.00,0.0,WeatherDisplay:10.37,2013-04-23 10:01:00,
2013-04-23 05:06:00,25.9,21.7,30.20,NNW,329,2.6,11.0,84,0.00,CLR,,0.00,0.0,WeatherDisplay:10.37,2013-04-23 10:06:00,
2013-04-23 05:11:00,25.8,21.6,30.20,NW,306,4.1,11.0,84,0.00,CLR,,0.00,0.0,WeatherDisplay:10.37,2013-04-23 10:11:00,
2013-04-23 05:16:00,25.7,21.5,30.19,NW,312,3.5,11.0,84,0.00,CLR,,0.00,0.0,WeatherDisplay:10.37,2013-04-23 10:16:00,
2013-04-23 05:21:00,25.5,21.3,30.19,NW,316,4.5,11.0,84,0.00,CLR,,0.00,0.0,WeatherDisplay:10.37,2013-04-23 10:21:00,
2013-04-23 05:26:00,25.3,21.1,30.19,NW,306,2.8,5.0,84,0.00,CLR,,0.00,0.0,WeatherDisplay:10.37,2013-04-23 10:26:00,
2013-04-23 05:31:00,25.1,20.9,30.19,NNW,327,4.1,11.0,84,0.00,CLR,,0.00,0.0,WeatherDisplay:10.37,2013-04-23 10:31:00,
2013-04-23 05:36:00,25.0,20.8,30.20,NW,324,2.9,7.0,84,0.00,CLR,,0.00,0.0,WeatherDisplay:10.37,2013-04-23 10:36:00,
2013-04-23 05:41:00,24.8,20.7,30.19,NW,321,4.2,8.1,84,0.00,CLR,,0.00,0.0,WeatherDisplay:10.37,2013-04-23 10:41:00,
2013-04-23 05:46:00,24.7,20.6,30.20,North,355,4.4,8.1,84,0.00,CLR,,0.00,0.0,WeatherDisplay:10.37,2013-04-23 10:46:00,
2013-04-23 05:51:00,24.7,20.6,30.19,NNW,333,2.6,7.0,84,0.00,CLR,,0.00,0.0,WeatherDisplay:10.37,2013-04-23 10:51:00,
2013-04-23 05:56:00,24.5,20.4,30.19,NNW,332,3.9,11.0,84,0.00,CLR,,0.00,0.0,WeatherDisplay:10.37,2013-04-23 10:56:00,
2013-04-23 06:01:00,24.5,20.4,30.19,WNW,296,3.5,10.0,84,0.00,CLR,,0.00,0.0,WeatherDisplay:10.37,2013-04-23 11:01:00,
2013-04-23 06:06:00,24.4,20.3,30.19,NW,318,4.5,11.0,84,0.00,CLR,,0.00,0.0,WeatherDisplay:10.37,2013-04-23 11:06:00,
2013-04-23 06:11:00,24.3,20.2,30.19,NW,318,3.5,5.8,84,0.00,CLR,,0.00,0.0,WeatherDisplay:10.37,2013-04-23 11:11:00,
2013-04-23 06:16:00,24.3,20.2,30.20,NW,306,0.4,2.3,84,0.00,CLR,,0.00,0.0,WeatherDisplay:10.37,2013-04-23 11:16:00,
2013-04-23 06:21:00,24.1,20.0,30.20,North,9,1.4,6.0,84,0.00,CLR,,0.00,0.0,WeatherDisplay:10.37,2013-04-23 11:21:00,
2013-04-23 06:26:00,24.1,20.0,30.20,NW,321,2.9,5.0,84,0.00,CLR,,0.00,0.0,WeatherDisplay:10.37,2013-04-23 11:26:00,
2013-04-23 06:31:00,24.1,20.0,30.21,North,360,3.9,6.0,84,0.00,CLR,,0.00,5.0,WeatherDisplay:10.37,2013-04-23 11:31:00,
2013-04-23 06:36:00,24.0,19.9,30.21,North,355,1.4,11.0,84,0.00,CLR,,0.00,7.0,WeatherDisplay:10.37,2013-04-23 11:36:00,
2013-04-23 06:41:00,24.0,19.9,30.21,WNW,300,2.6,11.0,84,0.00,CLR,,0.00,7.0,WeatherDisplay:10.37,2013-04-23 11:41:00,
2013-04-23 06:46:00,24.0,19.9,30.21,West,275,2.5,11.0,84,0.00,CLR,,0.00,9.0,WeatherDisplay:10.37,2013-04-23 11:46:00,
2013-04-23 06:51:00,24.0,19.6,30.21,NNW,328,3.8,7.0,83,0.00,CLR,,0.00,9.0,WeatherDisplay:10.37,2013-04-23 11:51:00,
2013-04-23 06:56:00,24.0,19.6,30.21,WNW,301,1.9,3.5,83,0.00,CLR,,0.00,11.0,WeatherDisplay:10.37,2013-04-23 11:56:00,
2013-04-23 07:01:00,24.1,19.7,30.21,NW,315,2.3,4.6,83,0.00,CLR,,0.00,12.0,WeatherDisplay:10.37,2013-04-23 12:01:00,
2013-04-23 07:06:00,24.1,19.7,30.21,NW,309,1.2,2.0,83,0.00,CLR,,0.00,12.0,WeatherDisplay:10.37,2013-04-23 12:06:00,
2013-04-23 07:11:00,24.3,19.9,30.21,NW,323,2.9,4.0,83,0.00,CLR,,0.00,14.0,WeatherDisplay:10.37,2013-04-23 12:11:00,
2013-04-23 07:16:00,24.5,20.1,30.21,NW,317,3.9,9.2,83,0.00,CLR,,0.00,14.0,WeatherDisplay:10.37,2013-04-23 12:16:00,
2013-04-23 07:21:00,24.6,19.9,30.21,NW,323,2.2,4.6,82,0.00,CLR,,0.00,16.0,WeatherDisplay:10.37,2013-04-23 12:21:00,
2013-04-23 07:26:00,24.5,19.8,30.20,NW,325,2.4,3.5,82,0.00,CLR,,0.00,18.0,WeatherDisplay:10.37,2013-04-23 12:26:00,
2013-04-23 07:31:00,24.7,20.0,30.20,North,355,3.1,6.9,82,0.00,CLR,,0.00,18.0,WeatherDisplay:10.37,2013-04-23 12:31:00,
2013-04-23 07:36:00,24.8,20.1,30.20,NNW,329,2.4,5.8,82,0.00,CLR,,0.00,19.0,WeatherDisplay:10.37,2013-04-23 12:36:00,
2013-04-23 07:41:00,25.0,20.0,30.20,NW,306,3.6,6.0,81,0.00,CLR,,0.00,25.0,WeatherDisplay:10.37,2013-04-23 12:41:00,
2013-04-23 07:46:00,25.4,20.4,30.20,NW,326,3.0,11.0,81,0.00,CLR,,0.00,26.0,WeatherDisplay:10.37,2013-04-23 12:46:00,
2013-04-23 07:51:00,25.7,20.7,30.20,NW,318,6.1,11.0,81,0.00,CLR,,0.00,37.0,WeatherDisplay:10.37,2013-04-23 12:51:00,
2013-04-23 07:56:00,26.0,20.7,30.20,NNW,338,3.9,11.0,80,0.00,CLR,,0.00,40.0,WeatherDisplay:10.37,2013-04-23 12:56:00,
2013-04-23 08:01:00,26.8,21.2,30.20,NW,316,4.9,7.0,79,0.00,CLR,,0.00,44.0,WeatherDisplay:10.37,2013-04-23 13:01:00,
2013-04-23 08:06:00,27.3,21.3,30.20,NNW,329,3.4,6.0,78,0.00,CLR,,0.00,46.0,WeatherDisplay:10.37,2013-04-23 13:06:00,
2013-04-23 08:11:00,27.6,21.0,30.20,NW,317,3.7,7.0,76,0.00,CLR,,0.00,49.0,WeatherDisplay:10.37,2013-04-23 13:11:00,
2013-04-23 08:16:00,28.0,21.4,30.21,NW,320,3.6,6.9,76,0.00,CLR,,0.00,53.0,WeatherDisplay:10.37,2013-04-23 13:16:00,
2013-04-23 08:21:00,28.1,21.5,30.21,North,360,3.0,11.0,76,0.00,CLR,,0.00,56.0,WeatherDisplay:10.37,2013-04-23 13:21:00,
2013-04-23 08:26:00,28.3,21.4,30.21,NW,323,2.9,11.0,75,0.00,CLR,,0.00,62.0,WeatherDisplay:10.37,2013-04-23 13:26:00,
2013-04-23 08:31:00,28.5,21.6,30.21,NW,309,3.5,8.1,75,0.00,CLR,,0.00,63.0,WeatherDisplay:10.37,2013-04-23 13:31:00,
2013-04-23 08:36:00,28.7,21.5,30.21,NW,319,3.1,11.0,74,0.00,CLR,,0.00,69.0,WeatherDisplay:10.37,2013-04-23 13:36:00,
2013-04-23 08:41:00,29.0,21.4,30.21,North,5,2.7,6.0,73,0.00,CLR,,0.00,74.0,WeatherDisplay:10.37,2013-04-23 13:41:00,
2013-04-23 08:46:00,29.3,21.7,30.21,NW,305,4.4,11.0,73,0.00,CLR,,0.00,77.0,WeatherDisplay:10.37,2013-04-23 13:46:00,
2013-04-23 08:51:00,29.5,21.9,30.21,NW,320,4.7,8.0,73,0.00,CLR,,0.00,83.0,WeatherDisplay:10.37,2013-04-23 13:51:00,
2013-04-23 08:56:00,29.8,21.9,30.21,WNW,297,3.5,11.0,72,0.00,CLR,,0.00,88.0,WeatherDisplay:10.37,2013-04-23 13:56:00,
2013-04-23 09:01:00,30.1,22.2,30.21,NW,326,3.9,8.0,72,0.00,CLR,,0.00,91.0,WeatherDisplay:10.37,2013-04-23 14:01:00,
2013-04-23 09:06:00,30.4,22.1,30.21,North,349,4.2,11.0,71,0.00,CLR,,0.00,97.0,WeatherDisplay:10.37,2013-04-23 14:06:00,
2013-04-23 09:11:00,30.5,21.9,30.20,WNW,302,5.7,8.1,70,0.00,CLR,,0.00,102.0,WeatherDisplay:10.37,2013-04-23 14:11:00,
2013-04-23 09:16:00,30.7,22.1,30.21,West,270,4.1,8.1,70,0.00,CLR,,0.00,107.0,WeatherDisplay:10.37,2013-04-23 14:16:00,
2013-04-23 09:21:00,31.0,22.0,30.21,NW,308,5.5,11.0,69,0.00,CLR,,0.00,114.0,WeatherDisplay:10.37,2013-04-23 14:21:00,
2013-04-23 09:26:00,31.4,22.4,30.21,NW,311,4.0,6.0,69,0.00,CLR,,0.00,118.0,WeatherDisplay:10.37,2013-04-23 14:26:00,
2013-04-23 09:31:00,31.7,22.3,30.21,NW,313,2.9,5.0,68,0.00,CLR,,0.00,125.0,WeatherDisplay:10.37,2013-04-23 14:31:00,
2013-04-23 09:36:00,32.0,22.6,30.21,NW,312,2.0,5.0,68,0.00,CLR,,0.00,130.0,WeatherDisplay:10.37,2013-04-23 14:36:00,
2013-04-23 09:41:00,32.2,22.5,30.21,NW,326,3.5,6.0,67,0.00,CLR,,0.00,135.0,WeatherDisplay:10.37,2013-04-23 14:41:00,
2013-04-23 09:46:00,32.3,22.6,30.21,NW,317,5.1,11.0,67,0.00,CLR,,0.00,141.0,WeatherDisplay:10.37,2013-04-23 14:46:00,
2013-04-23 09:51:00,32.5,22.8,30.21,WNW,298,2.5,11.0,67,0.00,CLR,,0.00,148.0,WeatherDisplay:10.37,2013-04-23 14:51:00,
2013-04-23 09:56:00,32.9,22.8,30.21,NNW,333,5.9,11.0,66,0.00,CLR,,0.00,153.0,WeatherDisplay:10.37,2013-04-23 14:56:00,
2013-04-23 10:01:00,33.2,22.7,30.20,North,355,5.8,10.4,65,0.00,CLR,,0.00,160.0,WeatherDisplay:10.37,2013-04-23 15:01:00,
2013-04-23 10:06:00,33.4,22.5,30.21,NW,322,5.7,11.0,64,0.00,CLR,,0.00,163.0,WeatherDisplay:10.37,2013-04-23 15:06:00,
2013-04-23 10:11:00,33.6,23.1,30.21,NW,315,3.9,8.0,65,0.00,CLR,,0.00,171.0,WeatherDisplay:10.37,2013-04-23 15:11:00,
2013-04-23 10:16:00,33.9,23.0,30.20,NW,319,3.4,9.2,64,0.00,CLR,,0.00,178.0,WeatherDisplay:10.37,2013-04-23 15:16:00,
2013-04-23 10:21:00,34.3,23.7,30.20,WNW,286,3.3,5.0,65,0.00,CLR,,0.00,183.0,WeatherDisplay:10.37,2013-04-23 15:21:00,
2013-04-23 10:26:00,34.7,24.1,30.20,West,268,4.6,10.0,65,0.00,CLR,,0.00,190.0,WeatherDisplay:10.37,2013-04-23 15:26:00,
2013-04-23 10:31:00,34.9,24.3,30.20,WNW,290,4.0,6.0,65,0.00,CLR,,0.00,197.0,WeatherDisplay:10.37,2013-04-23 15:31:00,
2013-04-23 10:36:00,35.1,24.1,30.20,NNW,327,4.5,7.0,64,0.00,CLR,,0.00,204.0,WeatherDisplay:10.37,2013-04-23 15:36:00,
2013-04-23 10:41:00,35.1,23.8,30.20,WNW,298,5.7,8.0,63,0.00,CLR,,0.00,213.0,WeatherDisplay:10.37,2013-04-23 15:41:00,
2013-04-23 10:46:00,35.1,24.1,30.19,NW,304,4.3,7.0,64,0.00,CLR,,0.00,221.0,WeatherDisplay:10.37,2013-04-23 15:46:00,
2013-04-23 10:51:00,35.4,24.0,30.19,WNW,302,4.3,7.0,63,0.00,CLR,,0.00,230.0,WeatherDisplay:10.37,2013-04-23 15:51:00,
2013-04-23 10:56:00,35.6,24.2,30.19,NNW,344,5.0,8.1,63,0.01,RA,,0.01,243.0,WeatherDisplay:10.37,2013-04-23 15:56:00,
2013-04-23 11:01:00,35.8,24.8,30.19,NNW,342,1.1,4.6,64,0.01,RA,,0.01,271.0,WeatherDisplay:10.37,2013-04-23 16:01:00,
2013-04-23 11:06:00,36.3,24.1,30.19,NW,325,3.8,6.0,61,0.02,RA,,0.02,302.0,WeatherDisplay:10.37,2013-04-23 16:06:00,
2013-04-23 11:11:00,36.2,24.0,30.18,WNW,294,5.9,10.4,61,0.05,RA,,0.05,322.0,WeatherDisplay:10.37,2013-04-23 16:11:00,
2013-04-23 11:16:00,36.2,24.0,30.18,WNW,303,6.3,11.5,61,0.07,RA,,0.08,348.0,WeatherDisplay:10.37,2013-04-23 16:16:00,
2013-04-23 11:21:00,36.2,23.6,30.18,NW,321,8.5,13.0,60,0.09,RA,,0.09,367.0,WeatherDisplay:10.37,2013-04-23 16:21:00,
2013-04-23 11:26:00,36.4,23.8,30.18,NW,321,4.5,7.0,60,0.10,RA,,0.10,420.0,WeatherDisplay:10.37,2013-04-23 16:26:00,
2013-04-23 11:31:00,37.0,24.4,30.18,WNW,301,4.5,8.0,60,0.11,RA,,0.11,524.0,WeatherDisplay:10.37,2013-04-23 16:31:00,
2013-04-23 11:36:00,37.2,23.8,30.18,WNW,290,5.3,9.2,58,0.12,RA,,0.12,703.0,WeatherDisplay:10.37,2013-04-23 16:36:00,
2013-04-23 11:41:00,37.0,24.0,30.18,NW,324,5.1,8.1,59,0.13,RA,,0.13,786.0,WeatherDisplay:10.37,2013-04-23 16:41:00,
2013-04-23 11:46:00,37.2,24.2,30.18,WNW,301,4.9,11.5,59,0.14,RA,,0.14,780.0,WeatherDisplay:10.37,2013-04-23 16:46:00,
2013-04-23 11:51:00,37.3,24.3,30.18,WNW,300,3.6,6.0,59,0.14,RA,,0.14,833.0,WeatherDisplay:10.37,2013-04-23 16:51:00,
2013-04-23 11:56:00,37.7,24.2,30.18,NNE,16,5.0,9.2,58,0.14,RA,,0.15,844.0,WeatherDisplay:10.37,2013-04-23 16:56:00,
2013-04-23 12:01:00,37.7,23.4,30.17,NNW,327,8.6,13.0,56,0.15,RA,,0.16,856.0,WeatherDisplay:10.37,2013-04-23 17:01:00,
2013-04-23 12:06:00,37.4,23.1,30.18,NW,321,8.1,11.5,56,0.14,RA,,0.16,861.0,WeatherDisplay:10.37,2013-04-23 17:06:00,
2013-04-23 12:11:00,37.3,23.4,30.18,WNW,291,4.2,8.1,57,0.12,RA,,0.17,863.0,WeatherDisplay:10.37,2013-04-23 17:11:00,
2013-04-23 12:16:00,37.8,23.5,30.17,WNW,292,6.2,17.0,56,0.10,RA,,0.18,868.0,WeatherDisplay:10.37,2013-04-23 17:16:00,
2013-04-23 12:21:00,37.9,23.6,30.17,WNW,288,4.5,17.0,56,0.09,RA,,0.18,874.0,WeatherDisplay:10.37,2013-04-23 17:21:00,
2013-04-23 12:26:00,38.0,22.8,30.17,NNW,348,8.5,17.0,54,0.09,RA,,0.19,879.0,WeatherDisplay:10.37,2013-04-23 17:26:00,
2013-04-23 12:31:00,37.5,22.8,30.17,NNW,328,7.2,12.0,55,0.08,RA,,0.20,879.0,WeatherDisplay:10.37,2013-04-23 17:31:00,
2013-04-23 12:36:00,37.8,23.1,30.17,NNW,332,5.0,9.0,55,0.08,RA,,0.20,884.0,WeatherDisplay:10.37,2013-04-23 17:36:00,
2013-04-23 12:41:00,37.8,23.1,30.17,North,355,6.8,9.2,55,0.08,RA,,0.21,888.0,WeatherDisplay:10.37,2013-04-23 17:41:00,
2013-04-23 12:46:00,38.1,23.3,30.17,NE,34,3.8,10.0,55,0.07,RA,,0.21,889.0,WeatherDisplay:10.37,2013-04-23 17:46:00,
2013-04-23 12:51:00,38.2,23.0,30.17,WNW,300,5.3,9.2,54,0.08,RA,,0.22,891.0,WeatherDisplay:10.37,2013-04-23 17:51:00,
2013-04-23 12:56:00,38.3,22.6,30.17,WNW,285,4.9,9.0,53,0.07,RA,,0.22,893.0,WeatherDisplay:10.37,2013-04-23 17:56:00,
2013-04-23 13:01:00,38.4,22.7,30.17,WNW,303,2.7,4.6,53,0.07,RA,,0.23,896.0,WeatherDisplay:10.37,2013-04-23 18:01:00,
2013-04-23 13:06:00,38.7,23.5,30.17,WNW,300,4.2,17.0,54,0.07,RA,,0.24,893.0,WeatherDisplay:10.37,2013-04-23 18:06:00,
2013-04-23 13:11:00,38.7,23.5,30.16,NW,324,6.5,12.0,54,0.07,RA,,0.24,893.0,WeatherDisplay:10.37,2013-04-23 18:11:00,
2013-04-23 13:16:00,38.9,23.7,30.16,NW,311,5.6,9.0,54,0.06,RA,,0.24,888.0,WeatherDisplay:10.37,2013-04-23 18:16:00,
2013-04-23 13:21:00,38.3,21.3,30.16,NW,309,5.5,17.0,50,0.07,RA,,0.25,893.0,WeatherDisplay:10.37,2013-04-23 18:21:00,
2013-04-23 13:26:00,38.3,22.6,30.16,NNW,329,5.6,10.4,53,0.06,RA,,0.25,893.0,WeatherDisplay:10.37,2013-04-23 18:26:00,
2013-04-23 13:31:00,38.7,23.9,30.16,NW,311,6.1,11.5,55,0.06,RA,,0.26,889.0,WeatherDisplay:10.37,2013-04-23 18:31:00,
2013-04-23 13:36:00,38.8,23.6,30.15,NW,313,3.5,17.0,54,0.06,RA,,0.26,891.0,WeatherDisplay:10.37,2013-04-23 18:36:00,
2013-04-23 13:41:00,38.9,23.7,30.15,West,278,6.5,12.0,54,0.05,CLR,,0.26,888.0,WeatherDisplay:10.37,2013-04-23 18:41:00,
2013-04-23 13:46:00,38.9,22.8,30.16,NW,315,4.1,10.4,52,0.06,RA,,0.27,888.0,WeatherDisplay:10.37,2013-04-23 18:46:00,
2013-04-23 13:51:00,38.8,22.7,30.16,WNW,284,7.1,17.0,52,0.05,RA,,0.27,884.0,WeatherDisplay:10.37,2013-04-23 18:51:00,
2013-04-23 13:56:00,38.7,23.0,30.15,NW,321,6.1,9.2,53,0.05,CLR,,0.27,882.0,WeatherDisplay:10.37,2013-04-23 18:56:00,
2013-04-23 14:01:00,38.8,22.7,30.15,WNW,293,8.1,14.0,52,0.05,RA,,0.28,877.0,WeatherDisplay:10.37,2013-04-23 19:01:00,
2013-04-23 14:06:00,39.1,22.0,30.15,WNW,290,7.9,17.0,50,0.05,RA,,0.28,877.0,WeatherDisplay:10.37,2013-04-23 19:06:00,
2013-04-23 14:11:00,38.9,21.8,30.15,NW,311,6.2,9.2,50,0.04,CLR,,0.28,872.0,WeatherDisplay:10.37,2013-04-23 19:11:00,
2013-04-23 14:16:00,39.2,22.1,30.15,NW,317,5.0,17.0,50,0.04,CLR,,0.28,865.0,WeatherDisplay:10.37,2013-04-23 19:16:00,
2013-04-23 14:21:00,39.1,21.5,30.15,WNW,284,7.7,12.0,49,0.03,CLR,,0.28,861.0,WeatherDisplay:10.37,2013-04-23 19:21:00,
2013-04-23 14:26:00,38.9,20.9,30.15,WNW,296,4.4,6.0,48,0.03,CLR,,0.28,854.0,WeatherDisplay:10.37,2013-04-23 19:26:00,
2013-04-23 14:31:00,39.2,22.6,30.15,NNW,342,5.1,17.0,51,0.02,CLR,,0.28,849.0,WeatherDisplay:10.37,2013-04-23 19:31:00,
2013-04-23 14:36:00,39.1,21.5,30.15,NW,319,6.6,14.0,49,0.02,CLR,,0.28,846.0,WeatherDisplay:10.37,2013-04-23 19:36:00,
2013-04-23 14:41:00,38.9,21.8,30.14,NNW,329,6.0,12.0,50,0.03,RA,,0.29,837.0,WeatherDisplay:10.37,2013-04-23 19:41:00,
2013-04-23 14:46:00,39.0,21.4,30.15,NW,325,6.7,17.0,49,0.02,RA,,0.29,830.0,WeatherDisplay:10.37,2013-04-23 19:46:00,
2013-04-23 14:51:00,39.1,21.5,30.14,WNW,286,4.8,14.0,49,0.02,CLR,,0.29,821.0,WeatherDisplay:10.37,2013-04-23 19:51:00,
2013-04-23 14:56:00,39.1,21.0,30.14,NW,317,6.0,10.0,48,0.02,CLR,,0.29,817.0,WeatherDisplay:10.37,2013-04-23 19:56:00,
2013-04-23 15:01:00,39.2,21.1,30.14,NNW,339,4.8,7.0,48,0.01,CLR,,0.29,809.0,WeatherDisplay:10.37,2013-04-23 20:01:00,
2013-04-23 15:06:00,39.6,21.5,30.14,NNW,328,3.8,6.0,48,0.01,CLR,,0.29,800.0,WeatherDisplay:10.37,2013-04-23 20:06:00,
2013-04-23 15:11:00,39.7,22.1,30.14,NNW,346,4.8,11.0,49,0.01,CLR,,0.29,793.0,WeatherDisplay:10.37,2013-04-23 20:11:00,
2013-04-23 15:16:00,39.5,21.4,30.14,NW,317,6.9,17.0,48,0.01,CLR,,0.29,782.0,WeatherDisplay:10.37,2013-04-23 20:16:00,
2013-04-23 15:21:00,39.6,21.5,30.14,NNW,331,6.4,10.4,48,0.01,CLR,,0.29,772.0,WeatherDisplay:10.37,2013-04-23 20:21:00,
2013-04-23 15:26:00,39.6,21.5,30.14,NW,317,4.9,17.0,48,0.01,CLR,,0.29,761.0,WeatherDisplay:10.37,2013-04-23 20:26:00,
2013-04-23 15:31:00,39.6,21.5,30.14,NW,311,6.7,17.0,48,0.01,CLR,,0.29,752.0,WeatherDisplay:10.37,2013-04-23 20:31:00,
2013-04-23 15:36:00,39.3,21.2,30.14,West,276,4.8,8.0,48,0.01,CLR,,0.29,744.0,WeatherDisplay:10.37,2013-04-23 20:36:00,
2013-04-23 15:41:00,39.6,22.0,30.14,West,275,5.3,17.0,49,0.00,CLR,,0.29,733.0,WeatherDisplay:10.37,2013-04-23 20:41:00,
2013-04-23 15:46:00,39.6,22.5,30.13,West,277,7.5,17.0,50,0.00,CLR,,0.29,724.0,WeatherDisplay:10.37,2013-04-23 20:46:00,
2013-04-23 15:51:00,39.7,22.1,30.13,NW,317,6.8,11.5,49,0.00,CLR,,0.29,714.0,WeatherDisplay:10.37,2013-04-23 20:51:00,
2013-04-23 15:56:00,39.8,22.7,30.14,NW,311,6.6,17.0,50,0.00,CLR,,0.29,700.0,WeatherDisplay:10.37,2013-04-23 20:56:00,
2013-04-23 16:01:00,39.6,22.5,30.13,WNW,292,4.3,10.4,50,0.00,CLR,,0.29,687.0,WeatherDisplay:10.37,2013-04-23 21:01:00,
2013-04-23 16:06:00,39.7,23.0,30.13,NNW,331,4.4,10.4,51,0.00,CLR,,0.29,675.0,WeatherDisplay:10.37,2013-04-23 21:06:00,
2013-04-23 16:11:00,39.6,22.9,30.13,WNW,301,4.9,17.0,51,0.00,CLR,,0.29,661.0,WeatherDisplay:10.37,2013-04-23 21:11:00,
2013-04-23 16:16:00,39.7,22.6,30.13,West,264,8.8,16.0,50,0.00,CLR,,0.29,652.0,WeatherDisplay:10.37,2013-04-23 21:16:00,
2013-04-23 16:21:00,39.5,22.8,30.13,West,280,5.8,17.0,51,0.00,CLR,,0.29,636.0,WeatherDisplay:10.37,2013-04-23 21:21:00,
2013-04-23 16:26:00,39.6,23.4,30.13,WNW,291,5.4,17.0,52,0.00,CLR,,0.29,626.0,WeatherDisplay:10.37,2013-04-23 21:26:00,
2013-04-23 16:31:00,39.5,22.4,30.13,WNW,294,9.9,13.0,50,0.00,CLR,,0.29,613.0,WeatherDisplay:10.37,2013-04-23 21:31:00,
2013-04-23 16:36:00,39.5,22.8,30.13,WNW,302,7.4,17.0,51,0.00,CLR,,0.29,598.0,WeatherDisplay:10.37,2013-04-23 21:36:00,
2013-04-23 16:41:00,39.5,22.8,30.13,NW,309,5.9,17.0,51,0.00,CLR,,0.29,585.0,WeatherDisplay:10.37,2013-04-23 21:41:00,
2013-04-23 16:46:00,39.5,21.9,30.13,WNW,302,6.9,11.5,49,0.00,CLR,,0.29,575.0,WeatherDisplay:10.37,2013-04-23 21:46:00,
2013-04-23 16:51:00,39.5,22.4,30.12,WNW,288,4.9,17.0,50,0.00,CLR,,0.29,559.0,WeatherDisplay:10.37,2013-04-23 21:51:00,
2013-04-23 16:56:00,39.6,22.9,30.13,NNW,334,5.2,17.0,51,0.00,CLR,,0.29,547.0,WeatherDisplay:10.37,2013-04-23 21:56:00,
2013-04-23 17:01:00,39.6,22.9,30.13,NNW,341,4.1,10.0,51,0.00,CLR,,0.29,533.0,WeatherDisplay:10.37,2013-04-23 22:01:00,
2013-04-23 17:06:00,39.5,22.8,30.12,West,272,4.9,8.1,51,0.00,CLR,,0.29,515.0,WeatherDisplay:10.37,2013-04-23 22:06:00,
2013-04-23 17:11:00,39.4,22.8,30.12,WNW,301,4.6,9.0,51,0.00,CLR,,0.29,503.0,WeatherDisplay:10.37,2013-04-23 22:11:00,
2013-04-23 17:16:00,39.3,22.7,30.12,NNW,333,9.4,13.0,51,0.00,CLR,,0.29,489.0,WeatherDisplay:10.37,2013-04-23 22:16:00,
2013-04-23 17:21:00,39.3,21.7,30.12,WNW,300,4.9,17.0,49,0.00,CLR,,0.29,469.0,WeatherDisplay:10.37,2013-04-23 22:21:00,
2013-04-23 17:26:00,39.3,21.7,30.12,WNW,294,4.0,17.0,49,0.00,CLR,,0.29,457.0,WeatherDisplay:10.37,2013-04-23 22:26:00,
2013-04-23 17:31:00,39.2,22.1,30.12,NW,326,3.6,17.0,50,0.00,CLR,,0.29,438.0,WeatherDisplay:10.37,2013-04-23 22:31:00,
2013-04-23 17:36:00,39.2,21.6,30.12,NNW,348,5.5,17.0,49,0.00,CLR,,0.29,425.0,WeatherDisplay:10.37,2013-04-23 22:36:00,
2013-04-23 17:41:00,39.2,22.6,30.12,WNW,301,5.8,17.0,51,0.00,CLR,,0.29,410.0,WeatherDisplay:10.37,2013-04-23 22:41:00,
2013-04-23 17:46:00,39.1,22.5,30.12,NNW,330,4.3,17.0,51,0.00,CLR,,0.29,396.0,WeatherDisplay:10.37,2013-04-23 22:46:00,
2013-04-23 17:51:00,38.8,23.1,30.11,North,11,4.2,17.0,53,0.00,CLR,,0.29,378.0,WeatherDisplay:10.37,2013-04-23 22:51:00,
2013-04-23 17:56:00,38.7,23.0,30.12,WNW,302,5.5,10.4,53,0.00,CLR,,0.29,364.0,WeatherDisplay:10.37,2013-04-23 22:56:00,
2013-04-23 18:01:00,38.6,22.5,30.12,WNW,298,7.4,14.0,52,0.00,CLR,,0.29,346.0,WeatherDisplay:10.37,2013-04-23 23:01:00,
2013-04-23 18:06:00,38.4,22.7,30.12,WNW,292,7.0,17.0,53,0.00,CLR,,0.29,332.0,WeatherDisplay:10.37,2013-04-23 23:06:00,
2013-04-23 18:11:00,38.0,22.4,30.12,WNW,291,4.5,9.2,53,0.00,CLR,,0.29,316.0,WeatherDisplay:10.37,2013-04-23 23:11:00,
2013-04-23 18:16:00,38.0,22.8,30.12,WNW,300,5.8,13.0,54,0.00,CLR,,0.29,299.0,WeatherDisplay:10.37,2013-04-23 23:16:00,
2013-04-23 18:21:00,38.2,23.0,30.12,NW,304,5.0,17.0,54,0.00,CLR,,0.29,281.0,WeatherDisplay:10.37,2013-04-23 23:21:00,
2013-04-23 18:26:00,38.2,22.1,30.11,WNW,288,6.6,17.0,52,0.00,CLR,,0.29,267.0,WeatherDisplay:10.37,2013-04-23 23:26:00,
2013-04-23 18:31:00,38.1,22.5,30.11,NW,308,4.9,17.0,53,0.00,CLR,,0.29,250.0,WeatherDisplay:10.37,2013-04-23 23:31:00,
2013-04-23 18:36:00,37.9,21.8,30.11,WNW,288,6.1,17.0,52,0.00,CLR,,0.29,234.0,WeatherDisplay:10.37,2013-04-23 23:36:00,
2013-04-23 18:41:00,37.8,22.6,30.11,West,279,9.0,17.0,54,0.00,CLR,,0.29,218.0,WeatherDisplay:10.37,2013-04-23 23:41:00,
2013-04-23 18:46:00,37.5,22.3,30.11,South,182,4.5,17.0,54,0.00,CLR,,0.29,193.0,WeatherDisplay:10.37,2013-04-23 23:46:00,
2013-04-23 18:51:00,37.4,22.3,30.11,NW,305,3.7,17.0,54,0.00,CLR,,0.29,179.0,WeatherDisplay:10.37,2013-04-23 23:51:00,
2013-04-23 18:56:00,37.4,22.7,30.11,WNW,299,4.2,7.0,55,0.00,CLR,,0.29,155.0,WeatherDisplay:10.37,2013-04-23 23:56:00,
2013-04-23 19:01:00,37.4,22.7,30.11,NW,311,3.6,7.0,55,0.00,CLR,,0.29,137.0,WeatherDisplay:10.37,2013-04-24 00:01:00,
2013-04-23 19:06:00,37.3,22.6,30.11,WNW,282,2.9,6.0,55,0.00,CLR,,0.29,123.0,WeatherDisplay:10.37,2013-04-24 00:06:00,
2013-04-23 19:11:00,37.1,22.4,30.11,West,269,7.4,10.4,55,0.00,CLR,,0.29,104.0,WeatherDisplay:10.37,2013-04-24 00:11:00,
2013-04-23 19:16:00,36.9,22.2,30.11,WNW,300,6.5,17.0,55,0.00,CLR,,0.29,91.0,WeatherDisplay:10.37,2013-04-24 00:16:00,
2013-04-23 19:21:00,36.6,22.4,30.11,WNW,296,6.3,10.0,56,0.00,CLR,,0.29,74.0,WeatherDisplay:10.37,2013-04-24 00:21:00,
2013-04-23 19:26:00,36.5,22.7,30.11,WNW,290,3.2,5.0,57,0.00,CLR,,0.29,63.0,WeatherDisplay:10.37,2013-04-24 00:26:00,
2013-04-23 19:31:00,36.4,22.6,30.11,NW,325,5.4,8.1,57,0.00,CLR,,0.29,51.0,WeatherDisplay:10.37,2013-04-24 00:31:00,
2013-04-23 19:36:00,36.2,22.8,30.11,WNW,298,2.9,4.0,58,0.00,CLR,,0.29,42.0,WeatherDisplay:10.37,2013-04-24 00:36:00,
2013-04-23 19:41:00,36.1,22.7,30.11,WNW,289,5.2,17.0,58,0.00,CLR,,0.29,26.0,WeatherDisplay:10.37,2013-04-24 00:41:00,
2013-04-23 19:46:00,35.9,22.5,30.11,WNW,286,7.5,17.0,58,0.00,CLR,,0.29,23.0,WeatherDisplay:10.37,2013-04-24 00:46:00,
2013-04-23 19:51:00,35.6,22.7,30.11,WNW,303,4.1,7.0,59,0.00,CLR,,0.29,19.0,WeatherDisplay:10.37,2013-04-24 00:51:00,
2013-04-23 19:56:00,35.5,22.6,30.11,West,269,5.2,8.0,59,0.00,CLR,,0.29,16.0,WeatherDisplay:10.37,2013-04-24 00:56:00,
2013-04-23 20:01:00,35.3,22.4,30.11,WNW,292,5.0,7.0,59,0.00,CLR,,0.29,14.0,WeatherDisplay:10.37,2013-04-24 01:01:00,
2013-04-23 20:06:00,35.2,22.3,30.11,NW,317,4.8,9.2,59,0.00,CLR,,0.29,11.0,WeatherDisplay:10.37,2013-04-24 01:06:00,
2013-04-23 20:11:00,35.0,22.5,30.11,NW,311,3.7,6.0,60,0.00,CLR,,0.29,7.0,WeatherDisplay:10.37,2013-04-24 01:11:00,
2013-04-23 20:16:00,34.8,22.3,30.11,NW,317,4.8,8.1,60,0.00,CLR,,0.29,0.0,WeatherDisplay:10.37,2013-04-24 01:16:00,
2013-04-23 20:21:00,34.6,22.5,30.11,WNW,297,3.9,7.0,61,0.00,CLR,,0.29,0.0,WeatherDisplay:10.37,2013-04-24 01:21:00,
2013-04-23 20:26:00,34.4,22.3,30.11,NW,311,3.2,8.1,61,0.00,CLR,,0.29,0.0,WeatherDisplay:10.37,2013-04-24 01:26:00,
2013-04-23 20:31:00,34.3,22.6,30.11,NW,309,2.7,4.0,62,0.00,CLR,,0.29,0.0,WeatherDisplay:10.37,2013-04-24 01:31:00,
2013-04-23 20:36:00,34.2,22.5,30.11,WNW,295,2.2,17.0,62,0.00,CLR,,0.29,0.0,WeatherDisplay:10.37,2013-04-24 01:36:00,
2013-04-23 20:41:00,34.0,22.7,30.11,WNW,303,3.5,17.0,63,0.00,CLR,,0.29,0.0,WeatherDisplay:10.37,2013-04-24 01:41:00,
2013-04-23 20:46:00,33.9,22.6,30.11,WNW,283,3.2,6.0,63,0.00,CLR,,0.29,0.0,WeatherDisplay:10.37,2013-04-24 01:46:00,
2013-04-23 20:51:00,33.8,22.9,30.11,WNW,302,2.1,17.0,64,0.00,CLR,,0.29,0.0,WeatherDisplay:10.37,2013-04-24 01:51:00,
2013-04-23 20:56:00,33.7,22.8,30.11,NW,312,3.2,17.0,64,0.00,CLR,,0.29,0.0,WeatherDisplay:10.37,2013-04-24 01:56:00,
2013-04-23 21:01:00,33.5,23.0,30.11,West,281,1.4,3.5,65,0.00,CLR,,0.29,0.0,WeatherDisplay:10.37,2013-04-24 02:01:00,
2013-04-23 21:06:00,33.5,23.0,30.11,WNW,285,4.1,17.0,65,0.00,CLR,,0.29,0.0,WeatherDisplay:10.37,2013-04-24 02:06:00,
2013-04-23 21:11:00,33.4,22.9,30.11,NW,309,1.3,17.0,65,0.00,CLR,,0.29,0.0,WeatherDisplay:10.37,2013-04-24 02:11:00,
2013-04-23 21:17:00,33.2,23.1,30.11,WNW,302,1.8,3.5,66,0.00,CLR,,0.29,0.0,WeatherDisplay:10.37,2013-04-24 02:17:00,
2013-04-23 21:22:00,32.9,23.1,30.11,WNW,286,2.2,17.0,67,0.00,CLR,,0.29,0.0,WeatherDisplay:10.37,2013-04-24 02:22:00,
2013-04-23 21:27:00,32.9,23.1,30.11,WNW,287,1.1,2.3,67,0.00,CLR,,0.29,0.0,WeatherDisplay:10.37,2013-04-24 02:27:00,
2013-04-23 21:32:00,32.8,23.0,30.12,WNW,287,1.8,4.0,67,0.00,CLR,,0.29,0.0,WeatherDisplay:10.37,2013-04-24 02:32:00,
2013-04-23 21:38:00,32.6,23.2,30.12,West,279,3.9,6.0,68,0.00,CLR,,0.29,0.0,WeatherDisplay:10.37,2013-04-24 02:38:00,
2013-04-23 21:43:00,32.5,23.1,30.12,WNW,282,3.5,5.0,68,0.00,CLR,,0.29,0.0,WeatherDisplay:10.37,2013-04-24 02:43:00,
2013-04-23 21:48:00,32.5,23.1,30.12,WNW,286,2.1,4.0,68,0.00,CLR,,0.29,0.0,WeatherDisplay:10.37,2013-04-24 02:48:00,
2013-04-23 21:54:00,32.4,23.4,30.12,West,280,2.0,17.0,69,0.00,CLR,CLR,0.29,0.0,WeatherDisplay:10.37,2013-04-24 02:54:00,
2013-04-23 21:59:00,32.4,23.3,30.12,West,278,1.0,17.0,69,0.00,CLR,CLR,0.29,0.0,WeatherDisplay:10.37,2013-04-24 02:59:00,
2013-04-23 22:04:00,32.3,23.3,30.12,West,279,1.0,4.0,69,0.00,CLR,CLR,0.29,0.0,WeatherDisplay:10.37,2013-04-24 03:04:00,
2013-04-23 22:09:00,32.3,23.3,30.12,West,279,3.0,17.0,69,0.00,CLR,CLR,0.29,0.0,WeatherDisplay:10.37,2013-04-24 03:09:00,
2013-04-23 22:14:00,32.3,23.3,30.12,West,278,2.0,5.0,69,0.00,CLR,CLR,0.29,0.0,WeatherDisplay:10.37,2013-04-24 03:14:00,
2013-04-23 22:19:00,32.2,23.5,30.12,WNW,288,3.0,8.0,70,0.00,CLR,CLR,0.29,0.0,WeatherDisplay:10.37,2013-04-24 03:19:00,
2013-04-23 22:24:00,32.2,23.5,30.11,WNW,283,1.6,3.5,70,0.00,CLR,,0.29,0.0,WeatherDisplay:10.37,2013-04-24 03:24:00,
2013-04-23 22:29:00,32.1,23.4,30.11,WNW,298,1.7,3.5,70,0.00,CLR,,0.29,0.0,WeatherDisplay:10.37,2013-04-24 03:29:00,
2013-04-23 22:36:00,32.0,23.3,30.11,WNW,290,1.4,17.0,70,0.00,CLR,,0.29,0.0,WeatherDisplay:10.37,2013-04-24 03:36:00,
2013-04-23 22:41:00,31.8,23.5,30.11,WNW,290,0.8,17.0,71,0.00,CLR,,0.29,0.0,WeatherDisplay:10.37,2013-04-24 03:41:00,
2013-04-23 22:46:00,31.6,23.6,30.11,WNW,293,1.5,17.0,72,0.00,CLR,,0.29,0.0,WeatherDisplay:10.37,2013-04-24 03:46:00,
2013-04-23 22:51:00,31.4,23.7,30.11,WNW,291,1.0,2.3,73,0.00,CLR,,0.29,0.0,WeatherDisplay:10.37,2013-04-24 03:51:00,
2013-04-23 22:56:00,31.3,23.6,30.11,WNW,291,1.3,3.0,73,0.00,CLR,,0.29,0.0,WeatherDisplay:10.37,2013-04-24 03:56:00,
2013-04-23 23:01:00,31.1,23.8,30.11,West,280,1.6,3.5,74,0.00,CLR,,0.29,0.0,WeatherDisplay:10.37,2013-04-24 04:01:00,
2013-04-23 23:02:00,31.1,23.8,30.10,West,280,0.2,2.3,74,0.00,CLR,,0.29,0.0,WeatherDisplay:10.37,2013-04-24 04:02:00,
2013-04-23 23:05:00,31.1,24.1,30.10,West,259,1.0,17.0,75,0.00,CLR,,0.29,0.0,WeatherDisplay:10.37,2013-04-24 04:05:00,
2013-04-23 23:06:00,31.0,24.0,30.10,West,265,1.3,3.5,75,0.00,CLR,,0.29,0.0,WeatherDisplay:10.37,2013-04-24 04:06:00,
2013-04-23 23:11:00,31.0,24.0,30.10,WNW,282,1.3,3.5,75,0.00,CLR,,0.29,0.0,WeatherDisplay:10.37,2013-04-24 04:11:00,
2013-04-23 23:14:00,31.0,24.3,30.10,West,279,1.0,17.0,76,0.00,CLR,CLR,0.29,0.0,WeatherDisplay:10.37,2013-04-24 04:14:00,
2013-04-23 23:19:00,31.0,24.3,30.10,West,281,1.0,17.0,76,0.00,CLR,CLR,0.29,0.0,WeatherDisplay:10.37,2013-04-24 04:19:00,
2013-04-23 23:24:00,31.0,24.6,30.10,West,277,0.0,17.0,77,0.00,CLR,CLR,0.29,0.0,WeatherDisplay:10.37,2013-04-24 04:24:00,
2013-04-23 23:29:00,30.8,24.5,30.10,West,278,2.0,17.0,77,0.00,CLR,CLR,0.29,0.0,WeatherDisplay:10.37,2013-04-24 04:29:00,
2013-04-23 23:34:00,30.8,24.4,30.10,WNW,282,1.0,17.0,77,0.00,CLR,CLR,0.29,0.0,WeatherDisplay:10.37,2013-04-24 04:34:00,
2013-04-23 23:39:00,30.8,24.4,30.10,West,280,0.0,17.0,77,0.00,CLR,CLR,0.29,0.0,WeatherDisplay:10.37,2013-04-24 04:39:00,
2013-04-23 23:44:00,30.7,24.3,30.09,West,276,1.0,17.0,77,0.00,CLR,CLR,0.29,0.0,WeatherDisplay:10.37,2013-04-24 04:44:00,
2013-04-23 23:49:00,30.6,24.3,30.09,West,281,1.0,17.0,77,0.00,CLR,CLR,0.29,0.0,WeatherDisplay:10.37,2013-04-24 04:49:00,
2013-04-23 23:54:00,30.5,24.1,30.09,WNW,288,0.9,2.3,77,0.00,CLR,,0.29,0.0,WeatherDisplay:10.37,2013-04-24 04:54:00,
2013-04-23 23:59:00,30.4,24.4,30.09,WNW,288,0.2,1.2,78,0.00,CLR,,0.29,0.0,WeatherDisplay:10.37,2013-04-24 04:59:00,